createdAt,value
2022-07-26T00:01:37.051Z,80.51
2022-07-26T00:06:39.329Z,80.46
2022-07-26T00:11:41.124Z,80.71
2022-07-26T00:16:43.402Z,80.66
2022-07-26T00:21:45.357Z,80.44
2022-07-26T00:26:47.206Z,80.43
2022-07-26T00:31:49.162Z,80.48
2022-07-26T00:36:51.014Z,80.82
2022-07-26T00:41:52.862Z,80.69
2022-07-26T00:46:54.927Z,80.32
2022-07-26T00:51:56.639Z,80.41
2022-07-26T00:56:58.760Z,80.53
2022-07-26T01:02:01.500Z,80.70
2022-07-26T01:07:14.751Z,81.03
2022-07-26T01:12:18.212Z,80.66
2022-07-26T01:17:19.983Z,80.83
2022-07-26T01:22:21.871Z,81.46
2022-07-26T01:27:24.143Z,82.15
2022-07-26T01:32:25.925Z,82.12
2022-07-26T01:37:27.576Z,82.37
2022-07-26T01:42:29.310Z,81.81
2022-07-26T01:47:31.175Z,81.93
2022-07-26T01:52:33.255Z,82.06
2022-07-26T01:57:35.267Z,81.89
2022-07-26T02:02:37.228Z,82.56
2022-07-26T02:07:43.842Z,82.35
2022-07-26T02:12:46.394Z,81.75
2022-07-26T02:17:49.640Z,82.04
2022-07-26T02:22:51.351Z,81.81
2022-07-26T02:27:53.311Z,82.44
2022-07-26T02:32:55.014Z,83.00
2022-07-26T02:38:01.499Z,82.40
2022-07-26T02:43:05.068Z,81.95
2022-07-26T02:48:07.461Z,81.74
2022-07-26T02:53:09.178Z,81.21
2022-07-26T02:58:10.861Z,81.05
2022-07-26T03:03:14.218Z,81.09
2022-07-26T03:08:16.381Z,81.09
2022-07-26T03:13:18.091Z,80.91
2022-07-26T03:18:19.829Z,80.77
2022-07-26T03:23:21.539Z,80.81
2022-07-26T03:28:23.253Z,80.27
2022-07-26T03:33:25.321Z,80.11
2022-07-26T03:38:26.995Z,80.09
2022-07-26T03:43:29.100Z,79.90
2022-07-26T03:48:32.584Z,79.38
2022-07-26T03:53:34.598Z,79.26
2022-07-26T03:58:36.802Z,78.84
2022-07-26T04:03:40.024Z,78.69
2022-07-26T04:08:46.259Z,78.50
2022-07-26T04:13:47.897Z,78.50
2022-07-26T04:18:49.807Z,78.61
2022-07-26T04:23:51.943Z,78.42
2022-07-26T04:28:53.786Z,78.96
2022-07-26T04:33:55.449Z,79.59
2022-07-26T04:38:57.136Z,80.44
2022-07-26T04:43:58.999Z,80.87
2022-07-26T04:49:00.874Z,81.44
2022-07-26T04:54:02.692Z,81.47
2022-07-26T04:59:04.409Z,81.49
2022-07-26T05:04:06.482Z,81.10
2022-07-26T05:09:08.919Z,80.58
2022-07-26T05:14:10.962Z,80.47
2022-07-26T05:19:13.848Z,80.55
2022-07-26T05:24:15.434Z,79.82
2022-07-26T05:29:17.158Z,79.02
2022-07-26T05:34:18.960Z,76.67
2022-07-26T05:39:20.877Z,73.96
2022-07-26T05:44:24.536Z,72.78
2022-07-26T05:49:28.286Z,71.19
2022-07-26T05:54:42.323Z,70.10
2022-07-26T05:59:44.063Z,69.53
2022-07-26T06:04:47.611Z,69.17
2022-07-26T06:09:49.656Z,68.51
2022-07-26T06:14:51.381Z,69.08
2022-07-26T06:19:53.103Z,68.73
2022-07-26T06:24:54.868Z,68.38
2022-07-26T06:29:56.547Z,68.40
2022-07-26T06:34:58.295Z,68.20
2022-07-26T06:40:00.028Z,68.75
2022-07-26T06:45:02.729Z,68.58
2022-07-26T06:50:05.121Z,68.81
2022-07-26T06:55:08.902Z,68.93
2022-07-26T07:00:14.842Z,67.85
2022-07-26T07:05:17.050Z,68.04
2022-07-26T07:10:19.358Z,68.23
2022-07-26T07:15:25.464Z,66.77
2022-07-26T07:20:28.351Z,66.86
2022-07-26T07:25:30.728Z,67.14
2022-07-26T07:30:32.934Z,66.62
2022-07-26T07:35:35.339Z,67.14
2022-07-26T07:40:37.814Z,67.63
2022-07-26T07:45:39.735Z,67.26
2022-07-26T07:50:41.467Z,66.63
2022-07-26T07:55:51.471Z,66.66
2022-07-26T08:00:57.127Z,65.17
2022-07-26T08:05:59.171Z,65.48
2022-07-26T08:11:00.968Z,64.75
2022-07-26T08:16:02.984Z,65.29
2022-07-26T08:21:08.226Z,64.68
2022-07-26T08:26:10.603Z,64.67
2022-07-26T08:31:12.431Z,63.47
2022-07-26T08:36:17.611Z,63.66
2022-07-26T08:41:19.422Z,62.52
2022-07-26T08:46:26.843Z,62.93
2022-07-26T08:51:31.319Z,62.01
2022-07-26T08:56:34.577Z,62.94
2022-07-26T09:01:50.616Z,62.76
2022-07-26T09:07:11.438Z,61.10
2022-07-26T09:12:18.665Z,60.77
2022-07-26T09:17:25.255Z,59.22
2022-07-26T09:22:27.071Z,58.38
2022-07-26T09:27:39.059Z,58.15
2022-07-26T09:32:40.826Z,57.12
2022-07-26T09:37:46.906Z,57.94
2022-07-26T09:42:57.730Z,56.75
2022-07-26T09:48:00.518Z,56.56
2022-07-26T09:53:13.096Z,54.88
2022-07-26T09:58:16.254Z,52.35
2022-07-26T10:03:17.981Z,52.88
2022-07-26T10:08:20.125Z,49.32
2022-07-26T10:13:23.138Z,48.09
2022-07-26T10:18:37.987Z,46.92
2022-07-26T10:23:50.482Z,46.13
2022-07-26T10:28:52.288Z,48.32
2022-07-26T10:33:55.456Z,50.49
2022-07-26T10:39:03.966Z,49.41
2022-07-26T10:44:20.425Z,51.18
2022-07-26T10:49:29.293Z,50.94
2022-07-26T10:54:31.966Z,51.01
2022-07-26T10:59:54.690Z,51.61
2022-07-26T11:05:01.008Z,51.28
2022-07-26T11:10:02.905Z,53.02
2022-07-26T11:15:16.984Z,53.47
2022-07-26T11:20:29.547Z,51.28
2022-07-26T11:25:31.949Z,51.71
2022-07-26T11:30:33.778Z,51.07
2022-07-26T11:35:35.570Z,50.99
2022-07-26T11:40:43.350Z,52.05
2022-07-26T11:45:52.346Z,52.30
2022-07-26T11:51:09.342Z,51.25
2022-07-26T11:56:22.935Z,52.36
2022-07-26T12:01:27.640Z,52.12
2022-07-26T12:06:30.281Z,52.17
2022-07-26T12:11:41.627Z,52.38
2022-07-26T12:16:45.692Z,52.23
2022-07-26T12:21:52.621Z,50.02
2022-07-26T12:27:07.265Z,45.38
2022-07-26T12:32:12.749Z,43.71
2022-07-26T12:37:17.448Z,45.43
2022-07-26T12:42:34.330Z,42.39
2022-07-26T12:47:38.770Z,41.69
2022-07-26T12:52:41.671Z,43.19
2022-07-26T12:57:47.229Z,41.13
2022-07-26T13:02:49.360Z,40.70
2022-07-26T13:07:55.449Z,41.68
2022-07-26T13:12:57.244Z,41.06
2022-07-26T13:17:59.584Z,40.53
2022-07-26T13:23:02.500Z,40.64
2022-07-26T13:28:04.334Z,41.04
2022-07-26T13:33:06.670Z,39.76
2022-07-26T13:38:11.722Z,39.44
2022-07-26T13:43:14.215Z,39.91
2022-07-26T13:48:15.896Z,40.14
2022-07-26T13:53:17.715Z,38.16
2022-07-26T13:58:21.691Z,39.05
2022-07-26T14:03:23.586Z,39.56
2022-07-26T14:08:25.463Z,38.86
2022-07-26T14:13:27.289Z,39.05
2022-07-26T14:18:28.999Z,39.37
2022-07-26T14:23:30.799Z,40.26
2022-07-26T14:28:32.538Z,41.61
2022-07-26T14:33:34.400Z,38.83
2022-07-26T14:38:36.962Z,39.79
2022-07-26T14:43:38.721Z,39.43
2022-07-26T14:48:53.942Z,40.84
2022-07-26T14:53:56.531Z,40.30
2022-07-26T14:58:58.269Z,41.73
2022-07-26T15:03:59.984Z,40.50
2022-07-26T15:09:01.888Z,41.07
2022-07-26T15:14:06.503Z,40.57
2022-07-26T15:19:08.373Z,42.38
2022-07-26T15:24:11.070Z,41.11
2022-07-26T15:29:13.080Z,40.22
2022-07-26T15:34:15.707Z,41.96
2022-07-26T15:39:18.390Z,41.09
2022-07-26T15:44:25.497Z,39.76
2022-07-26T15:49:27.917Z,38.58
2022-07-26T15:54:30.024Z,39.30
2022-07-26T15:59:31.706Z,38.59
2022-07-26T16:04:33.858Z,37.36
2022-07-26T16:09:35.445Z,37.28
2022-07-26T16:14:37.458Z,37.72
2022-07-26T16:19:39.147Z,37.50
2022-07-26T16:24:40.911Z,38.16
2022-07-26T16:29:42.714Z,38.21
2022-07-26T16:34:44.499Z,38.31
2022-07-26T16:39:46.324Z,38.04
2022-07-26T16:44:48.286Z,38.25
2022-07-26T16:49:50.174Z,37.65
2022-07-26T16:54:51.856Z,38.44
2022-07-26T16:59:53.562Z,37.58
2022-07-26T17:04:57.165Z,36.81
2022-07-26T17:09:58.863Z,37.11
2022-07-26T17:15:01.002Z,37.94
2022-07-26T17:20:04.075Z,38.29
2022-07-26T17:25:07.063Z,38.26
2022-07-26T17:30:09.492Z,38.90
2022-07-26T17:35:11.341Z,39.13
2022-07-26T17:40:13.317Z,38.01
2022-07-26T17:45:15.522Z,37.88
2022-07-26T17:55:39.192Z,39.17
2022-07-26T18:00:41.715Z,39.23
2022-07-26T18:05:43.822Z,39.43
2022-07-26T18:10:50.887Z,39.92
2022-07-26T18:15:53.680Z,40.20
2022-07-26T18:20:55.497Z,41.10
2022-07-26T18:25:58.070Z,41.42
2022-07-26T18:30:59.813Z,41.55
2022-07-26T18:36:01.654Z,41.27
2022-07-26T18:41:03.746Z,40.93
2022-07-26T18:46:06.471Z,41.43
2022-07-26T18:51:08.426Z,41.43
2022-07-26T18:56:10.284Z,43.93
2022-07-26T19:01:12.340Z,45.19
2022-07-26T19:06:14.274Z,46.51
2022-07-26T19:11:16.006Z,47.93
2022-07-26T19:16:17.819Z,49.19
2022-07-26T19:21:21.027Z,50.21
2022-07-26T19:26:23.821Z,50.71
2022-07-26T19:31:25.961Z,51.25
2022-07-26T19:36:27.740Z,51.80
2022-07-26T19:41:29.963Z,52.29
2022-07-26T19:46:31.676Z,52.27
2022-07-26T19:51:33.510Z,52.66
2022-07-26T19:56:35.435Z,53.01
2022-07-26T20:01:37.135Z,52.94
2022-07-26T20:06:38.835Z,52.84
2022-07-26T20:11:41.245Z,53.44
2022-07-26T20:16:43.014Z,54.69
2022-07-26T20:21:44.938Z,54.21
2022-07-26T20:26:46.719Z,54.84
2022-07-26T20:31:48.562Z,54.80
2022-07-26T20:36:50.297Z,54.92
2022-07-26T20:41:52.029Z,55.08
2022-07-26T20:46:54.452Z,55.31
2022-07-26T20:51:56.682Z,56.15
2022-07-26T20:56:58.554Z,56.84
2022-07-26T21:02:02.154Z,56.83
2022-07-26T21:07:03.975Z,56.89
2022-07-26T21:12:05.957Z,56.92
2022-07-26T21:17:11.647Z,57.15
2022-07-26T21:22:14.160Z,57.19
2022-07-26T21:27:15.866Z,57.21
2022-07-26T21:32:17.611Z,57.33
2022-07-26T21:37:19.306Z,57.53
2022-07-26T21:42:20.996Z,58.28
2022-07-26T21:47:28.986Z,58.24
2022-07-26T21:52:30.693Z,58.83
2022-07-26T21:57:32.469Z,59.58
2022-07-26T22:02:34.927Z,59.91
2022-07-26T22:07:36.713Z,60.11
2022-07-26T22:12:38.535Z,59.89
2022-07-26T22:17:40.413Z,59.88
2022-07-26T22:22:42.073Z,60.27
2022-07-26T22:27:43.777Z,60.02
2022-07-26T22:32:45.492Z,60.66
2022-07-26T22:37:47.174Z,60.80
2022-07-26T22:42:49.945Z,60.52
2022-07-26T22:47:55.705Z,60.49
2022-07-26T22:53:00.922Z,60.76
2022-07-26T22:58:02.743Z,61.75
2022-07-26T23:03:05.058Z,61.82
2022-07-26T23:08:44.219Z,61.63
2022-07-26T23:13:35.462Z,61.24
2022-07-26T23:18:37.137Z,61.09
2022-07-26T23:23:38.902Z,60.98
2022-07-26T23:28:40.878Z,61.04
2022-07-26T23:33:51.821Z,61.81
2022-07-26T23:38:56.589Z,62.00
2022-07-26T23:43:58.327Z,62.71
2022-07-26T23:49:00.204Z,63.74
2022-07-26T23:54:03.017Z,63.58
2022-07-26T23:59:04.795Z,63.11
